createdAt,value
2018-12-07T00:02:23.512Z,96615.25
2018-12-07T00:04:53.342Z,96607.08
2018-12-07T00:07:23.126Z,96611.79
2018-12-07T00:09:53.982Z,96603.44
2018-12-07T00:12:24.043Z,96601.86
2018-12-07T00:14:54.602Z,96600.72
2018-12-07T00:17:24.559Z,96593.53
2018-12-07T00:19:54.596Z,96593.94
2018-12-07T00:22:24.462Z,96594.37
2018-12-07T00:24:55.293Z,96595.73
2018-12-07T00:27:25.753Z,96584.85
2018-12-07T00:29:55.622Z,96580.39
2018-12-07T00:32:34.224Z,96583.33
2018-12-07T00:35:04.918Z,96589.97
2018-12-07T00:37:35.468Z,96587.44
2018-12-07T00:41:35.050Z,96594.81
2018-12-07T00:44:06.586Z,96594.37
2018-12-07T00:46:36.569Z,96594.00
2018-12-07T00:49:06.618Z,96586.45
2018-12-07T00:51:36.588Z,96576.77
2018-12-07T00:54:06.592Z,96573.47
2018-12-07T00:56:36.762Z,96557.71
2018-12-07T00:59:07.184Z,96562.02
2018-12-07T01:01:37.278Z,96567.02
2018-12-07T01:04:07.630Z,96562.31
2018-12-07T01:06:37.504Z,96568.20
2018-12-07T01:09:10.646Z,96560.84
2018-12-07T01:11:42.002Z,96562.02
2018-12-07T01:14:12.646Z,96565.88
2018-12-07T01:16:42.859Z,96567.23
2018-12-07T01:19:12.850Z,96560.65
2018-12-07T01:21:42.860Z,96561.80
2018-12-07T01:24:12.880Z,96573.09
2018-12-07T01:27:17.424Z,96571.16
2018-12-07T01:29:47.370Z,96567.02
2018-12-07T01:32:17.448Z,96571.10
2018-12-07T01:34:47.530Z,96562.58
2018-12-07T01:37:17.621Z,96561.41
2018-12-07T01:39:47.684Z,96557.33
2018-12-07T01:42:18.378Z,96557.93
2018-12-07T01:44:48.654Z,96560.27
2018-12-07T01:47:19.820Z,96547.80
2018-12-07T01:49:49.645Z,96549.14
2018-12-07T01:52:21.184Z,96539.61
2018-12-07T01:54:51.352Z,96534.53
2018-12-07T01:57:21.430Z,96532.42
2018-12-07T01:59:52.888Z,96521.92
2018-12-07T02:02:22.922Z,96522.50
2018-12-07T02:08:28.947Z,96507.88
2018-12-07T02:10:59.334Z,96515.69
2018-12-07T02:13:29.316Z,96506.57
2018-12-07T02:15:59.234Z,96498.19
2018-12-07T02:18:30.069Z,96502.08
2018-12-07T02:21:02.718Z,96500.10
2018-12-07T02:23:33.188Z,96500.48
2018-12-07T02:26:03.065Z,96496.19
2018-12-07T02:28:32.944Z,96492.11
2018-12-07T02:31:02.874Z,96487.64
2018-12-07T02:33:33.122Z,96491.55
2018-12-07T02:36:03.204Z,96480.88
2018-12-07T02:38:33.093Z,96483.98
2018-12-07T02:41:03.196Z,96474.03
2018-12-07T02:43:33.327Z,96480.43
2018-12-07T02:46:05.800Z,96480.38
2018-12-07T02:48:47.872Z,96473.39
2018-12-07T02:51:18.513Z,96476.30
2018-12-07T02:53:49.841Z,96471.46
2018-12-07T02:56:20.228Z,96473.22
2018-12-07T02:58:51.982Z,96468.19
2018-12-07T03:01:22.639Z,96465.84
2018-12-07T03:03:53.028Z,96456.89
2018-12-07T03:06:23.751Z,96466.61
2018-12-07T03:08:53.836Z,96457.08
2018-12-07T03:11:23.804Z,96447.73
2018-12-07T03:17:29.422Z,96438.82
2018-12-07T03:19:59.429Z,96441.19
2018-12-07T03:22:29.958Z,96434.38
2018-12-07T03:25:00.415Z,96430.70
2018-12-07T03:27:30.701Z,96421.39
2018-12-07T03:33:36.281Z,96416.48
2018-12-07T03:36:08.174Z,96420.73
2018-12-07T03:38:38.090Z,96413.93
2018-12-07T03:41:08.432Z,96423.84
2018-12-07T03:43:38.987Z,96417.05
2018-12-07T03:49:46.069Z,96416.48
2018-12-07T03:52:16.166Z,96414.55
2018-12-07T03:54:46.054Z,96414.16
2018-12-07T03:57:15.958Z,96427.41
2018-12-07T03:59:45.932Z,96424.24
2018-12-07T04:02:16.844Z,96425.39
2018-12-07T04:04:46.805Z,96413.93
2018-12-07T04:07:16.715Z,96407.74
2018-12-07T04:09:46.796Z,96399.58
2018-12-07T04:12:16.923Z,96401.52
2018-12-07T04:14:47.424Z,96395.09
2018-12-07T04:17:17.831Z,96392.16
2018-12-07T04:19:47.830Z,96390.41
2018-12-07T04:22:17.748Z,96396.81
2018-12-07T04:24:47.791Z,96394.22
2018-12-07T04:27:18.478Z,96390.35
2018-12-07T04:29:49.051Z,96390.00
2018-12-07T04:32:19.642Z,96390.19
2018-12-07T04:34:50.419Z,96390.97
2018-12-07T04:37:20.483Z,96389.04
2018-12-07T04:39:50.499Z,96382.42
2018-12-07T04:42:20.665Z,96387.29
2018-12-07T04:44:50.720Z,96380.87
2018-12-07T04:47:20.855Z,96381.97
2018-12-07T04:53:35.811Z,96378.98
2018-12-07T04:56:05.800Z,96376.52
2018-12-07T04:59:38.716Z,96374.20
2018-12-07T05:06:00.754Z,96347.78
2018-12-07T05:08:30.737Z,96351.47
2018-12-07T05:11:01.264Z,96352.22
2018-12-07T05:13:31.193Z,96356.73
2018-12-07T05:16:01.717Z,96344.48
2018-12-07T05:25:55.569Z,96347.78
2018-12-07T05:32:13.917Z,96360.77
2018-12-07T05:34:45.176Z,96357.87
2018-12-07T05:37:15.195Z,96360.59
2018-12-07T05:39:45.592Z,96358.27
2018-12-07T05:42:16.373Z,96360.81
2018-12-07T05:44:46.536Z,96352.81
2018-12-07T05:47:17.838Z,96346.77
2018-12-07T05:49:47.867Z,96350.28
2018-12-07T05:52:18.041Z,96354.98
2018-12-07T05:54:48.138Z,96356.34
2018-12-07T05:58:15.106Z,96361.42
2018-12-07T06:00:44.996Z,96359.45
2018-12-07T06:03:15.108Z,96353.41
2018-12-07T06:05:45.603Z,96363.09
2018-12-07T06:08:15.890Z,96354.37
2018-12-07T06:14:41.194Z,96341.94
2018-12-07T06:17:37.052Z,96343.30
2018-12-07T06:27:32.257Z,96335.14
2018-12-07T06:30:02.232Z,96329.66
2018-12-07T06:32:36.109Z,96328.51
2018-12-07T06:35:05.872Z,96331.02
2018-12-07T06:37:35.875Z,96322.23
2018-12-07T06:40:07.595Z,96317.94
2018-12-07T06:42:37.543Z,96323.20
2018-12-07T06:45:08.032Z,96322.98
2018-12-07T06:47:38.407Z,96323.81
2018-12-07T06:50:09.239Z,96321.66
2018-12-07T06:52:39.282Z,96315.66
2018-12-07T06:55:09.273Z,96314.46
2018-12-07T06:57:39.113Z,96313.06
2018-12-07T07:00:10.349Z,96316.18
2018-12-07T07:02:40.197Z,96320.64
2018-12-07T07:05:11.140Z,96321.22
2018-12-07T07:07:41.039Z,96322.20
2018-12-07T07:10:13.441Z,96318.33
2018-12-07T07:12:43.233Z,96318.90
2018-12-07T07:15:13.463Z,96312.66
2018-12-07T07:17:43.367Z,96318.55
2018-12-07T07:20:13.605Z,96316.45
2018-12-07T07:22:43.419Z,96317.63
2018-12-07T07:25:13.719Z,96309.86
2018-12-07T07:27:43.549Z,96306.97
2018-12-07T07:30:13.375Z,96306.58
2018-12-07T07:32:43.625Z,96295.16
2018-12-07T07:35:13.861Z,96296.52
2018-12-07T07:37:43.658Z,96287.80
2018-12-07T07:40:13.442Z,96299.25
2018-12-07T07:42:43.267Z,96286.26
2018-12-07T07:45:13.099Z,96281.60
2018-12-07T07:47:42.893Z,96273.25
2018-12-07T07:50:12.689Z,96265.84
2018-12-07T07:52:42.934Z,96257.72
2018-12-07T07:55:12.735Z,96260.27
2018-12-07T07:57:42.785Z,96257.93
2018-12-07T08:00:13.323Z,96250.37
2018-12-07T08:02:43.099Z,96253.92
2018-12-07T08:05:12.889Z,96256.43
2018-12-07T08:07:42.847Z,96252.56
2018-12-07T08:10:12.647Z,96254.89
2018-12-07T08:12:42.488Z,96246.36
2018-12-07T08:15:12.322Z,96238.56
2018-12-07T08:17:42.359Z,96238.63
2018-12-07T08:20:12.239Z,96225.01
2018-12-07T08:22:42.137Z,96226.01
2018-12-07T08:25:11.923Z,96215.91
2018-12-07T08:27:41.714Z,96212.45
2018-12-07T08:30:13.503Z,96213.84
2018-12-07T08:32:43.355Z,96215.78
2018-12-07T08:35:13.887Z,96216.30
2018-12-07T08:37:43.689Z,96213.36
2018-12-07T08:40:13.645Z,96209.67
2018-12-07T08:42:43.461Z,96209.09
2018-12-07T08:45:13.309Z,96201.16
2018-12-07T08:47:43.097Z,96192.86
2018-12-07T08:50:13.341Z,96197.73
2018-12-07T08:52:44.091Z,96196.00
2018-12-07T08:55:14.560Z,96195.41
2018-12-07T08:57:44.390Z,96200.45
2018-12-07T09:00:15.175Z,96191.71
2018-12-07T09:02:44.909Z,96195.43
2018-12-07T09:05:15.391Z,96194.45
2018-12-07T09:07:45.275Z,96196.00
2018-12-07T09:10:15.536Z,96197.19
2018-12-07T09:12:45.341Z,96200.50
2018-12-07T09:15:15.077Z,96188.45
2018-12-07T09:17:44.862Z,96182.25
2018-12-07T09:20:15.915Z,96180.15
2018-12-07T09:22:45.955Z,96176.28
2018-12-07T09:26:16.385Z,96179.02
2018-12-07T09:28:46.447Z,96173.38
2018-12-07T09:31:16.275Z,96171.81
2018-12-07T09:33:46.075Z,96156.84
2018-12-07T09:36:15.857Z,96156.66
2018-12-07T09:38:45.668Z,96152.38
2018-12-07T09:41:15.479Z,96149.87
2018-12-07T09:43:45.319Z,96135.05
2018-12-07T09:46:15.167Z,96130.97
2018-12-07T09:48:44.989Z,96124.34
2018-12-07T09:51:15.158Z,96121.44
2018-12-07T09:53:45.260Z,96115.20
2018-12-07T09:56:15.091Z,96116.94
2018-12-07T09:58:44.871Z,96106.81
2018-12-07T10:01:15.313Z,96097.86
2018-12-07T10:03:45.126Z,96094.35
2018-12-07T10:13:07.874Z,96066.13
2018-12-07T10:15:35.248Z,96058.33
2018-12-07T10:18:05.729Z,96047.23
2018-12-07T10:20:36.117Z,96036.70
2018-12-07T10:23:05.950Z,96036.91
2018-12-07T10:25:35.713Z,96022.67
2018-12-07T10:28:05.832Z,96022.67
2018-12-07T10:30:35.613Z,96015.06
2018-12-07T10:33:05.843Z,96004.74
2018-12-07T10:35:35.974Z,96009.41
2018-12-07T10:38:06.067Z,96004.54
2018-12-07T10:40:35.958Z,95999.67
2018-12-07T10:43:06.089Z,95990.33
2018-12-07T10:45:35.949Z,95986.27
2018-12-07T10:48:06.033Z,95980.20
2018-12-07T10:50:35.830Z,95975.13
2018-12-07T10:53:05.619Z,95968.71
2018-12-07T10:55:35.881Z,95956.81
2018-12-07T10:58:05.622Z,95949.79
2018-12-07T11:00:40.649Z,95949.18
2018-12-07T11:03:16.255Z,95949.96
2018-12-07T11:05:51.760Z,95944.30
2018-12-07T11:08:27.505Z,95936.69
2018-12-07T11:11:00.040Z,95935.32
2018-12-07T11:13:34.217Z,95918.92
2018-12-07T11:16:09.100Z,95918.13
2018-12-07T11:18:44.355Z,95907.78
2018-12-07T11:22:20.029Z,95906.95
2018-12-07T11:24:55.455Z,95888.73
2018-12-07T11:27:30.423Z,95883.80
2018-12-07T11:30:05.357Z,95863.43
2018-12-07T11:32:39.209Z,95868.46
2018-12-07T11:35:14.764Z,95868.63
2018-12-07T11:37:44.546Z,95857.50
2018-12-07T11:40:14.803Z,95854.49
2018-12-07T11:42:44.617Z,95861.47
2018-12-07T11:45:14.421Z,95842.27
2018-12-07T11:47:44.621Z,95843.20
2018-12-07T11:50:14.519Z,95847.55
2018-12-07T11:52:44.386Z,95846.56
2018-12-07T11:55:14.561Z,95844.00
2018-12-07T11:57:44.759Z,95854.41
2018-12-07T12:00:14.609Z,95855.27
2018-12-07T12:02:44.443Z,95865.34
2018-12-07T12:05:14.267Z,95872.20
2018-12-07T12:07:44.063Z,95885.98
2018-12-07T12:10:13.822Z,95881.53
2018-12-07T12:12:43.582Z,95875.92
2018-12-07T12:15:13.497Z,95870.47
2018-12-07T12:17:43.281Z,95857.78
2018-12-07T12:20:14.324Z,95854.72
2018-12-07T12:22:44.058Z,95847.02
2018-12-07T12:25:13.891Z,95839.00
2018-12-07T12:27:43.695Z,95829.59
2018-12-07T12:30:13.502Z,95819.11
2018-12-07T12:32:43.246Z,95825.73
2018-12-07T12:35:13.087Z,95828.06
2018-12-07T12:37:43.310Z,95827.84
2018-12-07T12:40:13.124Z,95823.05
2018-12-07T12:42:42.848Z,95822.31
2018-12-07T12:45:12.662Z,95817.66
2018-12-07T12:47:42.570Z,95808.34
2018-12-07T12:50:17.596Z,95818.46
2018-12-07T12:52:47.376Z,95807.03
2018-12-07T12:55:18.314Z,95797.91
2018-12-07T12:57:48.073Z,95797.55
2018-12-07T13:00:18.016Z,95801.88
2018-12-07T13:02:48.209Z,95797.59
2018-12-07T13:05:18.293Z,95795.48
2018-12-07T13:07:48.703Z,95793.92
2018-12-07T13:10:18.552Z,95783.97
2018-12-07T13:12:48.638Z,95783.38
2018-12-07T13:15:18.483Z,95780.45
2018-12-07T13:17:48.249Z,95773.63
2018-12-07T13:20:18.142Z,95773.63
2018-12-07T13:22:48.550Z,95760.38
2018-12-07T13:25:18.632Z,95751.19
2018-12-07T13:27:48.533Z,95754.84
2018-12-07T13:30:18.638Z,95740.78
2018-12-07T13:32:48.588Z,95742.31
2018-12-07T13:35:18.344Z,95734.78
2018-12-07T13:37:48.243Z,95735.77
2018-12-07T13:40:18.292Z,95734.98
2018-12-07T13:42:48.671Z,95723.15
2018-12-07T13:45:18.858Z,95713.45
2018-12-07T13:47:49.462Z,95710.78
2018-12-07T13:50:24.977Z,95703.18
2018-12-07T13:52:55.729Z,95687.61
2018-12-07T13:55:26.161Z,95678.22
2018-12-07T13:57:56.900Z,95678.81
2018-12-07T14:00:26.963Z,95679.64
2018-12-07T14:02:57.462Z,95685.83
2018-12-07T14:05:32.198Z,95684.66
2018-12-07T14:08:00.034Z,95688.42
2018-12-07T14:10:30.033Z,95681.80
2018-12-07T14:12:59.879Z,95661.95
2018-12-07T14:15:30.126Z,95655.70
2018-12-07T14:18:01.705Z,95645.96
2018-12-07T14:20:31.864Z,95641.51
2018-12-07T14:23:02.062Z,95630.38
2018-12-07T14:25:32.086Z,95614.72
2018-12-07T14:28:02.529Z,95595.80
2018-12-07T14:30:32.743Z,95582.73
2018-12-07T14:33:02.987Z,95584.69
2018-12-07T14:35:33.305Z,95582.38
2018-12-07T14:38:03.449Z,95584.10
2018-12-07T14:40:33.598Z,95578.48
2018-12-07T14:43:03.645Z,95575.23
2018-12-07T14:45:35.003Z,95569.61
2018-12-07T14:48:05.127Z,95566.52
2018-12-07T14:50:35.548Z,95572.58
2018-12-07T14:53:06.132Z,95563.66
2018-12-07T14:55:36.835Z,95549.47
2018-12-07T14:58:07.084Z,95539.73
2018-12-07T15:00:37.209Z,95534.66
2018-12-07T15:03:07.614Z,95530.61
2018-12-07T15:05:38.654Z,95520.90
2018-12-07T15:08:08.817Z,95509.42
2018-12-07T15:10:39.024Z,95503.23
2018-12-07T15:13:09.324Z,95499.15
2018-12-07T15:15:39.907Z,95498.17
2018-12-07T15:18:10.047Z,95492.92
2018-12-07T15:20:40.258Z,95492.70
2018-12-07T15:23:10.376Z,95474.21
2018-12-07T15:25:40.412Z,95471.13
2018-12-07T15:28:10.752Z,95456.58
2018-12-07T15:30:40.956Z,95455.81
2018-12-07T15:33:11.110Z,95464.63
2018-12-07T15:35:41.209Z,95462.70
2018-12-07T15:38:11.137Z,95466.01
2018-12-07T15:40:42.117Z,95452.97
2018-12-07T15:43:12.292Z,95458.83
2018-12-07T15:45:42.459Z,95451.05
2018-12-07T15:48:12.689Z,95443.09
2018-12-07T15:50:42.855Z,95440.80
2018-12-07T15:53:13.230Z,95444.11
2018-12-07T15:55:45.566Z,95436.56
2018-12-07T15:58:15.355Z,95417.94
2018-12-07T16:00:45.613Z,95416.95
2018-12-07T16:03:15.872Z,95401.60
2018-12-07T16:05:46.363Z,95399.05
2018-12-07T16:08:16.450Z,95402.75
2018-12-07T16:10:49.346Z,95402.97
2018-12-07T16:13:18.666Z,95389.95
2018-12-07T16:15:48.464Z,95393.67
2018-12-07T16:18:18.638Z,95387.08
2018-12-07T16:20:48.760Z,95370.75
2018-12-07T16:23:18.539Z,95357.57
2018-12-07T16:25:48.970Z,95352.71
2018-12-07T16:28:19.389Z,95368.83
2018-12-07T16:30:49.506Z,95369.77
2018-12-07T16:33:19.610Z,95362.02
2018-12-07T16:35:49.713Z,95371.74
2018-12-07T16:38:19.675Z,95392.74
2018-12-07T16:40:50.029Z,95390.19
2018-12-07T16:43:20.243Z,95388.59
2018-12-07T16:45:50.474Z,95389.34
2018-12-07T16:48:20.664Z,95393.16
2018-12-07T16:50:51.182Z,95392.78
2018-12-07T16:53:21.341Z,95386.14
2018-12-07T16:55:51.330Z,95381.09
2018-12-07T16:58:21.580Z,95381.86
2018-12-07T17:00:51.866Z,95392.78
2018-12-07T17:03:21.986Z,95394.31
2018-12-07T17:05:52.047Z,95403.82
2018-12-07T17:08:22.523Z,95392.92
2018-12-07T17:10:52.790Z,95390.56
2018-12-07T17:13:23.557Z,95394.65
2018-12-07T17:15:53.733Z,95386.48
2018-12-07T17:18:23.908Z,95386.67
2018-12-07T17:20:55.233Z,95388.47
2018-12-07T17:23:25.500Z,95391.20
2018-12-07T17:25:55.565Z,95385.00
2018-12-07T17:28:25.350Z,95392.58
2018-12-07T17:30:56.019Z,95387.72
2018-12-07T17:33:26.231Z,95399.44
2018-12-07T17:35:56.016Z,95387.80
2018-12-07T17:38:26.132Z,95384.29
2018-12-07T17:40:56.457Z,95378.48
2018-12-07T17:43:26.607Z,95388.23
2018-12-07T17:45:56.586Z,95403.08
2018-12-07T17:48:26.883Z,95407.14
2018-12-07T17:50:56.696Z,95395.47
2018-12-07T17:53:27.372Z,95417.08
2018-12-07T17:55:57.768Z,95427.20
2018-12-07T17:58:28.196Z,95432.81
2018-12-07T18:00:59.737Z,95416.10
2018-12-07T18:03:29.530Z,95423.48
2018-12-07T18:05:59.363Z,95424.27
2018-12-07T18:08:29.366Z,95424.66
2018-12-07T18:10:59.736Z,95423.69
2018-12-07T18:20:41.045Z,95427.04
2018-12-07T18:23:11.011Z,95393.95
2018-12-07T18:25:41.007Z,95411.30
2018-12-07T18:28:10.936Z,95399.86
2018-12-07T18:30:41.135Z,95399.29
2018-12-07T18:33:11.577Z,95411.37
2018-12-07T18:35:41.605Z,95407.09
2018-12-07T18:38:11.704Z,95415.25
2018-12-07T18:40:41.900Z,95407.50
2018-12-07T18:43:12.036Z,95410.39
2018-12-07T18:45:42.389Z,95409.07
2018-12-07T18:48:12.541Z,95403.86
2018-12-07T18:50:42.887Z,95400.77
2018-12-07T18:53:13.474Z,95403.30
2018-12-07T18:55:43.380Z,95407.03
2018-12-07T18:58:14.512Z,95403.94
2018-12-07T19:00:44.820Z,95400.28
2018-12-07T19:03:15.284Z,95418.33
2018-12-07T19:05:45.552Z,95409.61
2018-12-07T19:08:16.255Z,95412.33
2018-12-07T19:10:46.451Z,95424.20
2018-12-07T19:13:16.572Z,95428.91
2018-12-07T19:15:46.736Z,95417.29
2018-12-07T19:18:17.103Z,95416.72
2018-12-07T19:20:47.582Z,95398.06
2018-12-07T19:23:17.946Z,95402.75
2018-12-07T19:25:48.161Z,95401.03
2018-12-07T19:28:18.413Z,95404.49
2018-12-07T19:30:49.847Z,95405.07
2018-12-07T19:33:20.257Z,95399.84
2018-12-07T19:35:50.408Z,95396.17
2018-12-07T19:38:20.518Z,95401.20
2018-12-07T19:40:51.078Z,95399.84
2018-12-07T19:43:21.188Z,95410.14
2018-12-07T19:45:51.571Z,95393.83
2018-12-07T19:48:21.641Z,95394.05
2018-12-07T19:50:51.770Z,95381.80
2018-12-07T19:53:21.909Z,95389.58
2018-12-07T19:55:52.045Z,95391.52
2018-12-07T19:58:21.962Z,95384.14
2018-12-07T20:00:52.213Z,95368.78
2018-12-07T20:03:22.187Z,95361.19
2018-12-07T20:05:52.221Z,95364.44
2018-12-07T20:08:22.623Z,95365.22
2018-12-07T20:10:52.708Z,95372.59
2018-12-07T20:13:22.487Z,95376.88
2018-12-07T20:15:53.199Z,95347.73
2018-12-07T20:18:23.315Z,95374.66
2018-12-07T20:20:53.539Z,95373.28
2018-12-07T20:23:23.830Z,95371.88
2018-12-07T20:25:53.902Z,95375.79
2018-12-07T20:28:24.130Z,95391.75
2018-12-07T20:30:54.337Z,95393.92
2018-12-07T20:33:24.718Z,95399.61
2018-12-07T20:35:55.006Z,95403.33
2018-12-07T20:38:25.915Z,95414.84
2018-12-07T20:40:56.071Z,95423.40
2018-12-07T20:43:26.304Z,95437.20
2018-12-07T20:45:56.549Z,95454.09
2018-12-07T20:48:26.724Z,95457.80
2018-12-07T20:50:57.839Z,95471.22
2018-12-07T20:53:28.186Z,95500.55
2018-12-07T20:55:58.453Z,95511.65
2018-12-07T20:58:28.985Z,95496.91
2018-12-07T21:00:59.563Z,95498.06
2018-12-07T21:04:44.715Z,95511.21
2018-12-07T21:07:38.479Z,95508.88
2018-12-07T21:10:39.905Z,95505.95
2018-12-07T21:14:37.342Z,95508.30
2018-12-07T21:17:14.906Z,95507.86
2018-12-07T21:19:57.251Z,95513.11
2018-12-07T21:22:27.290Z,95492.56
2018-12-07T21:28:33.685Z,95494.47
2018-12-07T21:31:04.443Z,95486.69
2018-12-07T21:34:47.947Z,95498.52
2018-12-07T21:37:18.226Z,95486.70
2018-12-07T21:39:52.393Z,95494.25
2018-12-07T21:42:22.664Z,95486.53
2018-12-07T21:44:52.949Z,95463.87
2018-12-07T21:47:35.939Z,95481.67
2018-12-07T21:50:14.255Z,95481.46
2018-12-07T21:52:44.415Z,95484.77
2018-12-07T21:55:14.752Z,95483.59
2018-12-07T21:57:45.123Z,95496.58
2018-12-07T22:00:15.540Z,95492.51
2018-12-07T22:02:45.843Z,95504.11
2018-12-07T22:05:16.013Z,95519.23
2018-12-07T22:07:46.379Z,95548.31
2018-12-07T22:10:16.534Z,95577.78
2018-12-07T22:12:46.751Z,95576.22
2018-12-07T22:15:17.115Z,95602.95
2018-12-07T22:17:47.834Z,95600.78
2018-12-07T22:20:18.276Z,95604.23
2018-12-07T22:22:48.368Z,95624.91
2018-12-07T22:25:18.385Z,95637.83
2018-12-07T22:27:49.091Z,95639.72
2018-12-07T22:30:20.342Z,95631.34
2018-12-07T22:32:50.377Z,95651.20
2018-12-07T22:38:56.336Z,95688.17
2018-12-07T22:41:26.464Z,95683.73
2018-12-07T22:43:56.609Z,95688.30
2018-12-07T22:46:26.656Z,95702.06
2018-12-07T22:48:57.400Z,95677.47
2018-12-07T22:51:27.629Z,95698.48
2018-12-07T22:53:57.461Z,95712.37
2018-12-07T22:56:27.253Z,95730.48
2018-12-07T22:58:57.085Z,95735.99
2018-12-07T23:01:27.987Z,95728.62
2018-12-07T23:03:57.980Z,95737.66
2018-12-07T23:06:27.833Z,95752.42
2018-12-07T23:08:57.673Z,95766.34
2018-12-07T23:11:27.493Z,95767.88
2018-12-07T23:13:57.393Z,95773.51
2018-12-07T23:16:27.319Z,95800.36
2018-12-07T23:18:57.143Z,95826.09
2018-12-07T23:21:26.967Z,95839.84
2018-12-07T23:23:56.737Z,95854.00
2018-12-07T23:26:28.669Z,95862.44
2018-12-07T23:28:58.560Z,95867.97
2018-12-07T23:31:28.359Z,95871.81
2018-12-07T23:33:58.179Z,95880.78
2018-12-07T23:36:28.249Z,95877.36
2018-12-07T23:38:58.093Z,95893.53
2018-12-07T23:41:28.095Z,95899.00
2018-12-07T23:43:57.879Z,95908.89
2018-12-07T23:46:27.701Z,95907.31
2018-12-07T23:48:57.489Z,95905.97
2018-12-07T23:51:27.393Z,95929.41
2018-12-07T23:53:57.285Z,95939.17
2018-12-07T23:56:27.129Z,95948.07
2018-12-07T23:58:57.089Z,95954.67
